sensor_id;sensor_type;location;lat;lon;timestamp;temperature;humidity
42803;DHT22;28447;48.682;9.022;2023-02-28T05:01:15;-1.90;99.90
42803;DHT22;28447;48.682;9.022;2023-02-28T05:03:42;-1.90;99.90
42803;DHT22;28447;48.682;9.022;2023-02-28T05:06:09;-2.00;99.90
42803;DHT22;28447;48.682;9.022;2023-02-28T05:08:35;-1.90;99.90
42803;DHT22;28447;48.682;9.022;2023-02-28T05:11:01;-1.80;99.90
42803;DHT22;28447;48.682;9.022;2023-02-28T05:13:28;-1.80;99.90
42803;DHT22;28447;48.682;9.022;2023-02-28T05:15:54;-1.80;99.90
42803;DHT22;28447;48.682;9.022;2023-02-28T05:18:20;-1.80;99.90
42803;DHT22;28447;48.682;9.022;2023-02-28T05:20:45;-1.80;99.90
42803;DHT22;28447;48.682;9.022;2023-02-28T05:23:13;-1.80;99.90
42803;DHT22;28447;48.682;9.022;2023-02-28T05:25:39;-1.80;99.90
42803;DHT22;28447;48.682;9.022;2023-02-28T05:28:05;-1.80;99.90
42803;DHT22;28447;48.682;9.022;2023-02-28T05:30:32;-1.80;99.90
42803;DHT22;28447;48.682;9.022;2023-02-28T05:32:58;-1.80;99.90
42803;DHT22;28447;48.682;9.022;2023-02-28T05:35:24;-1.80;99.90
42803;DHT22;28447;48.682;9.022;2023-02-28T05:37:50;-1.70;99.90
42803;DHT22;28447;48.682;9.022;2023-02-28T05:40:16;-1.80;99.90
42803;DHT22;28447;48.682;9.022;2023-02-28T05:42:42;-1.80;99.90
42803;DHT22;28447;48.682;9.022;2023-02-28T05:45:08;-1.90;99.90
42803;DHT22;28447;48.682;9.022;2023-02-28T05:47:35;-1.80;99.90
42803;DHT22;28447;48.682;9.022;2023-02-28T05:50:01;-1.80;99.90
42803;DHT22;28447;48.682;9.022;2023-02-28T05:52:27;-1.80;99.90
42803;DHT22;28447;48.682;9.022;2023-02-28T05:54:55;-1.80;99.90
42803;DHT22;28447;48.682;9.022;2023-02-28T05:57:21;-1.80;99.90
42803;DHT22;28447;48.682;9.022;2023-02-28T05:59:47;-1.70;99.90
42803;DHT22;28447;48.682;9.022;2023-02-28T06:02:14;-1.70;99.90
42803;DHT22;28447;48.682;9.022;2023-02-28T06:04:41;-1.70;99.90
42803;DHT22;28447;48.682;9.022;2023-02-28T06:07:08;-1.70;99.90
42803;DHT22;28447;48.682;9.022;2023-02-28T06:09:34;-1.70;99.90
42803;DHT22;28447;48.682;9.022;2023-02-28T06:12:00;-1.70;99.90
42803;DHT22;28447;48.682;9.022;2023-02-28T06:14:28;-1.70;99.90
42803;DHT22;28447;48.682;9.022;2023-02-28T06:16:53;-1.80;99.90
42803;DHT22;28447;48.682;9.022;2023-02-28T06:19:19;-1.90;99.90
42803;DHT22;28447;48.682;9.022;2023-02-28T06:21:45;-1.80;99.90
42803;DHT22;28447;48.682;9.022;2023-02-28T06:24:14;-1.70;99.90
42803;DHT22;28447;48.682;9.022;2023-02-28T06:26:39;-1.80;99.90
42803;DHT22;28447;48.682;9.022;2023-02-28T06:29:05;-1.70;99.90
42803;DHT22;28447;48.682;9.022;2023-02-28T06:31:30;-1.70;99.90
42803;DHT22;28447;48.682;9.022;2023-02-28T06:33:56;-1.70;99.90
42803;DHT22;28447;48.682;9.022;2023-02-28T06:36:22;-1.70;99.90
42803;DHT22;28447;48.682;9.022;2023-02-28T06:38:48;-1.60;99.90
42803;DHT22;28447;48.682;9.022;2023-02-28T06:41:21;-1.70;99.90
42803;DHT22;28447;48.682;9.022;2023-02-28T06:43:46;-1.60;99.90
42803;DHT22;28447;48.682;9.022;2023-02-28T06:46:13;-1.60;99.90
42803;DHT22;28447;48.682;9.022;2023-02-28T06:48:39;-1.60;99.90
42803;DHT22;28447;48.682;9.022;2023-02-28T06:51:08;-1.60;99.90
42803;DHT22;28447;48.682;9.022;2023-02-28T06:53:34;-1.60;99.90
42803;DHT22;28447;48.682;9.022;2023-02-28T06:56:07;-1.50;99.90
42803;DHT22;28447;48.682;9.022;2023-02-28T06:58:33;-1.50;99.90
42803;DHT22;28447;48.682;9.022;2023-02-28T07:00:59;-1.40;99.90
42803;DHT22;28447;48.682;9.022;2023-02-28T07:03:25;-1.60;99.90
42803;DHT22;28447;48.682;9.022;2023-02-28T07:05:50;-1.50;99.90
42803;DHT22;28447;48.682;9.022;2023-02-28T07:08:16;-1.50;99.90
42803;DHT22;28447;48.682;9.022;2023-02-28T07:10:42;-1.60;99.90
42803;DHT22;28447;48.682;9.022;2023-02-28T07:13:08;-1.50;99.90
42803;DHT22;28447;48.682;9.022;2023-02-28T07:15:35;-1.40;99.90
42803;DHT22;28447;48.682;9.022;2023-02-28T07:18:01;-1.40;99.90
42803;DHT22;28447;48.682;9.022;2023-02-28T07:20:27;-1.20;99.90
42803;DHT22;28447;48.682;9.022;2023-02-28T07:22:52;-1.30;99.90
42803;DHT22;28447;48.682;9.022;2023-02-28T07:25:30;-1.30;99.90
42803;DHT22;28447;48.682;9.022;2023-02-28T07:27:56;-1.30;99.90
42803;DHT22;28447;48.682;9.022;2023-02-28T07:30:22;-1.30;99.90
42803;DHT22;28447;48.682;9.022;2023-02-28T07:32:48;-1.40;99.90
42803;DHT22;28447;48.682;9.022;2023-02-28T07:35:13;-1.30;99.90
42803;DHT22;28447;48.682;9.022;2023-02-28T07:37:41;-1.20;99.90
42803;DHT22;28447;48.682;9.022;2023-02-28T07:40:09;-1.00;99.90
42803;DHT22;28447;48.682;9.022;2023-02-28T07:42:37;-1.10;99.90
42803;DHT22;28447;48.682;9.022;2023-02-28T07:45:03;-1.00;99.90
42803;DHT22;28447;48.682;9.022;2023-02-28T07:47:29;-0.90;99.90
42803;DHT22;28447;48.682;9.022;2023-02-28T07:49:55;-0.90;99.90
42803;DHT22;28447;48.682;9.022;2023-02-28T07:52:21;-0.80;99.90
42803;DHT22;28447;48.682;9.022;2023-02-28T07:54:49;-0.90;99.90
42803;DHT22;28447;48.682;9.022;2023-02-28T07:57:15;-0.90;99.90
42803;DHT22;28447;48.682;9.022;2023-02-28T07:59:41;-0.80;99.90
42803;DHT22;28447;48.682;9.022;2023-02-28T08:02:08;-0.60;99.90
42803;DHT22;28447;48.682;9.022;2023-02-28T08:04:35;-0.70;99.90
42803;DHT22;28447;48.682;9.022;2023-02-28T08:07:01;-0.60;99.90
42803;DHT22;28447;48.682;9.022;2023-02-28T08:09:26;-0.70;99.90
42803;DHT22;28447;48.682;9.022;2023-02-28T08:11:52;-0.70;99.90
42803;DHT22;28447;48.682;9.022;2023-02-28T08:14:17;-0.80;99.90
42803;DHT22;28447;48.682;9.022;2023-02-28T08:16:43;-0.60;99.90
42803;DHT22;28447;48.682;9.022;2023-02-28T08:19:09;-0.70;99.90
42803;DHT22;28447;48.682;9.022;2023-02-28T08:21:34;-0.60;99.90
42803;DHT22;28447;48.682;9.022;2023-02-28T08:24:00;-0.50;99.90
42803;DHT22;28447;48.682;9.022;2023-02-28T08:26:26;-0.40;99.90
42803;DHT22;28447;48.682;9.022;2023-02-28T08:28:51;-0.30;99.90
42803;DHT22;28447;48.682;9.022;2023-02-28T08:31:18;-0.30;99.90
42803;DHT22;28447;48.682;9.022;2023-02-28T08:33:44;-0.40;99.90
42803;DHT22;28447;48.682;9.022;2023-02-28T08:36:11;-0.50;99.90
42803;DHT22;28447;48.682;9.022;2023-02-28T08:38:37;-0.40;99.90
42803;DHT22;28447;48.682;9.022;2023-02-28T08:41:06;-0.40;99.90
42803;DHT22;28447;48.682;9.022;2023-02-28T08:43:33;-0.30;99.90
42803;DHT22;28447;48.682;9.022;2023-02-28T08:45:59;-0.30;99.90
42803;DHT22;28447;48.682;9.022;2023-02-28T08:48:26;-0.30;99.90
42803;DHT22;28447;48.682;9.022;2023-02-28T08:51:04;-0.40;99.90
42803;DHT22;28447;48.682;9.022;2023-02-28T08:53:30;-0.40;99.90
42803;DHT22;28447;48.682;9.022;2023-02-28T08:56:00;-0.40;99.90
42803;DHT22;28447;48.682;9.022;2023-02-28T08:58:27;-0.10;99.90
42803;DHT22;28447;48.682;9.022;2023-02-28T09:00:53;-0.10;99.90
42803;DHT22;28447;48.682;9.022;2023-02-28T09:03:19;-0.10;99.90
42803;DHT22;28447;48.682;9.022;2023-02-28T09:06:01;0.00;99.90
42803;DHT22;28447;48.682;9.022;2023-02-28T09:08:29;0.10;99.90
42803;DHT22;28447;48.682;9.022;2023-02-28T09:10:55;0.00;99.90
42803;DHT22;28447;48.682;9.022;2023-02-28T09:13:24;-0.10;99.90
42803;DHT22;28447;48.682;9.022;2023-02-28T09:15:50;0.00;99.90
42803;DHT22;28447;48.682;9.022;2023-02-28T09:18:16;0.00;99.90
42803;DHT22;28447;48.682;9.022;2023-02-28T09:20:42;0.10;99.90
42803;DHT22;28447;48.682;9.022;2023-02-28T09:23:09;0.20;99.90
42803;DHT22;28447;48.682;9.022;2023-02-28T09:25:35;-0.10;99.90
42803;DHT22;28447;48.682;9.022;2023-02-28T09:28:01;-0.10;99.90
42803;DHT22;28447;48.682;9.022;2023-02-28T09:30:27;0.30;99.90
42803;DHT22;28447;48.682;9.022;2023-02-28T09:32:54;0.40;99.90
42803;DHT22;28447;48.682;9.022;2023-02-28T09:35:20;0.20;99.90
42803;DHT22;28447;48.682;9.022;2023-02-28T09:37:50;0.30;99.90
42803;DHT22;28447;48.682;9.022;2023-02-28T09:40:21;0.50;99.90
42803;DHT22;28447;48.682;9.022;2023-02-28T09:42:49;0.40;99.90
42803;DHT22;28447;48.682;9.022;2023-02-28T09:45:28;0.60;99.90
42803;DHT22;28447;48.682;9.022;2023-02-28T09:47:59;0.60;99.90
42803;DHT22;28447;48.682;9.022;2023-02-28T09:50:36;0.50;99.90
42803;DHT22;28447;48.682;9.022;2023-02-28T09:53:19;0.70;99.90
42803;DHT22;28447;48.682;9.022;2023-02-28T09:55:51;0.80;99.90
42803;DHT22;28447;48.682;9.022;2023-02-28T09:58:29;0.70;99.90
42803;DHT22;28447;48.682;9.022;2023-02-28T10:01:09;0.60;99.90
42803;DHT22;28447;48.682;9.022;2023-02-28T10:06:43;0.60;99.90
42803;DHT22;28447;48.682;9.022;2023-02-28T10:09:15;0.80;99.90
42803;DHT22;28447;48.682;9.022;2023-02-28T10:11:44;0.80;99.90
42803;DHT22;28447;48.682;9.022;2023-02-28T10:14:18;0.90;99.90
42803;DHT22;28447;48.682;9.022;2023-02-28T10:19:27;0.70;99.90
42803;DHT22;28447;48.682;9.022;2023-02-28T10:24:56;0.80;99.90
42803;DHT22;28447;48.682;9.022;2023-02-28T10:27:31;0.80;99.90
42803;DHT22;28447;48.682;9.022;2023-02-28T10:30:00;1.10;99.90
42803;DHT22;28447;48.682;9.022;2023-02-28T10:35:01;1.60;99.90
42803;DHT22;28447;48.682;9.022;2023-02-28T10:37:31;1.80;99.90
42803;DHT22;28447;48.682;9.022;2023-02-28T10:39:57;1.90;99.90
42803;DHT22;28447;48.682;9.022;2023-02-28T10:42:30;1.80;99.90
42803;DHT22;28447;48.682;9.022;2023-02-28T10:45:05;2.10;99.90
42803;DHT22;28447;48.682;9.022;2023-02-28T10:47:33;2.80;99.90
42803;DHT22;28447;48.682;9.022;2023-02-28T10:52:40;3.40;99.90
42803;DHT22;28447;48.682;9.022;2023-02-28T10:55:35;3.80;99.90
42803;DHT22;28447;48.682;9.022;2023-02-28T10:58:01;3.60;99.90
42803;DHT22;28447;48.682;9.022;2023-02-28T11:00:34;3.80;99.90
42803;DHT22;28447;48.682;9.022;2023-02-28T11:03:00;3.20;99.90
42803;DHT22;28447;48.682;9.022;2023-02-28T11:05:31;2.90;99.90
42803;DHT22;28447;48.682;9.022;2023-02-28T11:08:16;2.50;99.90
42803;DHT22;28447;48.682;9.022;2023-02-28T11:10:47;3.00;99.90
42803;DHT22;28447;48.682;9.022;2023-02-28T11:13:21;3.60;99.90
42803;DHT22;28447;48.682;9.022;2023-02-28T11:15:58;3.00;99.90
42803;DHT22;28447;48.682;9.022;2023-02-28T11:20:57;3.00;99.90
42803;DHT22;28447;48.682;9.022;2023-02-28T11:23:26;3.60;99.90
42803;DHT22;28447;48.682;9.022;2023-02-28T11:25:55;3.10;99.90
42803;DHT22;28447;48.682;9.022;2023-02-28T11:28:29;3.10;99.90
42803;DHT22;28447;48.682;9.022;2023-02-28T11:36:27;4.10;99.90
42803;DHT22;28447;48.682;9.022;2023-02-28T11:38:55;5.40;99.90
42803;DHT22;28447;48.682;9.022;2023-02-28T11:41:40;5.90;99.70
42803;DHT22;28447;48.682;9.022;2023-02-28T11:46:59;7.70;97.10
42803;DHT22;28447;48.682;9.022;2023-02-28T12:00:32;12.40;87.30
42803;DHT22;28447;48.682;9.022;2023-02-28T12:28:21;7.60;91.70
42803;DHT22;28447;48.682;9.022;2023-02-28T12:31:24;8.40;91.40
42803;DHT22;28447;48.682;9.022;2023-02-28T12:33:53;8.60;90.00
42803;DHT22;28447;48.682;9.022;2023-02-28T12:36:21;8.60;90.90
42803;DHT22;28447;48.682;9.022;2023-02-28T12:39:00;9.10;91.50
42803;DHT22;28447;48.682;9.022;2023-02-28T12:41:46;10.70;90.00
42803;DHT22;28447;48.682;9.022;2023-02-28T12:44:25;10.80;86.30
42803;DHT22;28447;48.682;9.022;2023-02-28T12:46:55;11.50;84.90
42803;DHT22;28447;48.682;9.022;2023-02-28T12:49:40;11.10;87.20
42803;DHT22;28447;48.682;9.022;2023-02-28T12:52:06;11.90;85.40
42803;DHT22;28447;48.682;9.022;2023-02-28T13:00:03;13.70;77.40
42803;DHT22;28447;48.682;9.022;2023-02-28T13:02:44;15.90;74.50
42803;DHT22;28447;48.682;9.022;2023-02-28T13:10:50;16.00;71.00
42803;DHT22;28447;48.682;9.022;2023-02-28T13:13:23;13.70;73.80
42803;DHT22;28447;48.682;9.022;2023-02-28T13:16:06;15.30;72.20
42803;DHT22;28447;48.682;9.022;2023-02-28T13:18:37;16.10;68.50
42803;DHT22;28447;48.682;9.022;2023-02-28T13:21:07;16.20;68.20
42803;DHT22;28447;48.682;9.022;2023-02-28T13:26:12;15.70;69.40
42803;DHT22;28447;48.682;9.022;2023-02-28T13:29:07;17.60;64.70
42803;DHT22;28447;48.682;9.022;2023-02-28T13:47:42;15.10;68.00
42803;DHT22;28447;48.682;9.022;2023-02-28T13:50:43;15.50;68.30
42803;DHT22;28447;48.682;9.022;2023-02-28T13:56:03;17.40;63.50
42803;DHT22;28447;48.682;9.022;2023-02-28T13:59:20;17.30;63.80
42803;DHT22;28447;48.682;9.022;2023-02-28T14:07:33;16.50;64.60
42803;DHT22;28447;48.682;9.022;2023-02-28T14:10:05;16.60;63.00
42803;DHT22;28447;48.682;9.022;2023-02-28T14:12:57;16.60;63.10
42803;DHT22;28447;48.682;9.022;2023-02-28T14:15:47;15.70;64.40
42803;DHT22;28447;48.682;9.022;2023-02-28T14:20:49;14.80;66.70
42803;DHT22;28447;48.682;9.022;2023-02-28T14:26:36;15.80;66.60
42803;DHT22;28447;48.682;9.022;2023-02-28T14:32:35;15.70;63.20
42803;DHT22;28447;48.682;9.022;2023-02-28T14:37:38;14.60;65.50
42803;DHT22;28447;48.682;9.022;2023-02-28T14:40:11;15.30;65.70
42803;DHT22;28447;48.682;9.022;2023-02-28T14:42:38;13.70;66.60
42803;DHT22;28447;48.682;9.022;2023-02-28T14:45:18;15.40;67.00
42803;DHT22;28447;48.682;9.022;2023-02-28T14:47:44;16.20;64.00
42803;DHT22;28447;48.682;9.022;2023-02-28T14:50:24;15.80;62.70
42803;DHT22;28447;48.682;9.022;2023-02-28T14:52:55;15.10;64.80
42803;DHT22;28447;48.682;9.022;2023-02-28T14:55:45;13.30;68.40
42803;DHT22;28447;48.682;9.022;2023-02-28T15:00:50;12.90;69.40
42803;DHT22;28447;48.682;9.022;2023-02-28T15:03:27;13.70;67.30
42803;DHT22;28447;48.682;9.022;2023-02-28T15:05:58;13.10;69.10
42803;DHT22;28447;48.682;9.022;2023-02-28T15:08:25;13.60;68.80
42803;DHT22;28447;48.682;9.022;2023-02-28T15:13:20;13.80;67.30
42803;DHT22;28447;48.682;9.022;2023-02-28T15:20:47;12.00;70.70
42803;DHT22;28447;48.682;9.022;2023-02-28T15:23:14;13.20;69.30
42803;DHT22;28447;48.682;9.022;2023-02-28T15:25:41;14.60;66.00
42803;DHT22;28447;48.682;9.022;2023-02-28T15:28:18;14.60;65.20
42803;DHT22;28447;48.682;9.022;2023-02-28T15:31:02;14.90;66.40
42803;DHT22;28447;48.682;9.022;2023-02-28T15:33:31;14.60;66.80
42803;DHT22;28447;48.682;9.022;2023-02-28T15:36:14;12.60;69.60
42803;DHT22;28447;48.682;9.022;2023-02-28T15:38:42;13.10;69.70
42803;DHT22;28447;48.682;9.022;2023-02-28T15:41:25;11.60;72.30
42803;DHT22;28447;48.682;9.022;2023-02-28T15:44:45;12.40;70.50
42803;DHT22;28447;48.682;9.022;2023-02-28T15:47:04;12.60;69.80
42803;DHT22;28447;48.682;9.022;2023-02-28T15:49:39;11.60;71.20
42803;DHT22;28447;48.682;9.022;2023-02-28T15:52:05;11.00;72.90
42803;DHT22;28447;48.682;9.022;2023-02-28T15:54:35;10.50;73.50
42803;DHT22;28447;48.682;9.022;2023-02-28T15:57:06;9.60;76.90
42803;DHT22;28447;48.682;9.022;2023-02-28T15:59:35;8.90;79.00
42803;DHT22;28447;48.682;9.022;2023-02-28T16:02:23;9.00;78.40
42803;DHT22;28447;48.682;9.022;2023-02-28T16:07:37;8.00;81.40
42803;DHT22;28447;48.682;9.022;2023-02-28T16:10:04;6.90;83.30
42803;DHT22;28447;48.682;9.022;2023-02-28T16:12:32;7.20;84.40
42803;DHT22;28447;48.682;9.022;2023-02-28T16:15:05;7.20;83.80
42803;DHT22;28447;48.682;9.022;2023-02-28T16:17:35;7.40;84.00
42803;DHT22;28447;48.682;9.022;2023-02-28T16:20:01;7.10;84.10
42803;DHT22;28447;48.682;9.022;2023-02-28T16:22:31;7.50;83.40
42803;DHT22;28447;48.682;9.022;2023-02-28T16:24:56;6.90;84.80
42803;DHT22;28447;48.682;9.022;2023-02-28T16:27:30;6.20;86.20
42803;DHT22;28447;48.682;9.022;2023-02-28T16:29:56;5.90;87.30
42803;DHT22;28447;48.682;9.022;2023-02-28T16:32:22;6.00;88.30
42803;DHT22;28447;48.682;9.022;2023-02-28T16:34:48;6.10;88.10
42803;DHT22;28447;48.682;9.022;2023-02-28T16:37:15;6.00;88.70
42803;DHT22;28447;48.682;9.022;2023-02-28T16:39:43;5.60;89.60
42803;DHT22;28447;48.682;9.022;2023-02-28T16:42:24;5.50;89.30
42803;DHT22;28447;48.682;9.022;2023-02-28T16:44:51;5.10;90.60
42803;DHT22;28447;48.682;9.022;2023-02-28T16:47:17;4.80;92.00
42803;DHT22;28447;48.682;9.022;2023-02-28T16:49:43;4.70;92.80
42803;DHT22;28447;48.682;9.022;2023-02-28T16:52:10;4.60;92.60
42803;DHT22;28447;48.682;9.022;2023-02-28T16:54:38;4.30;91.50
42803;DHT22;28447;48.682;9.022;2023-02-28T16:57:05;4.60;92.20
42803;DHT22;28447;48.682;9.022;2023-02-28T16:59:31;4.60;92.00
42803;DHT22;28447;48.682;9.022;2023-02-28T17:01:57;4.40;92.10
42803;DHT22;28447;48.682;9.022;2023-02-28T17:04:25;4.20;92.50
42803;DHT22;28447;48.682;9.022;2023-02-28T17:06:51;4.20;92.90
42803;DHT22;28447;48.682;9.022;2023-02-28T17:09:20;4.20;92.70
42803;DHT22;28447;48.682;9.022;2023-02-28T17:11:46;3.90;93.00
42803;DHT22;28447;48.682;9.022;2023-02-28T17:14:12;3.80;93.40
42803;DHT22;28447;48.682;9.022;2023-02-28T17:16:39;3.70;93.40
42803;DHT22;28447;48.682;9.022;2023-02-28T17:19:08;3.60;93.80
42803;DHT22;28447;48.682;9.022;2023-02-28T17:21:36;3.60;93.70
42803;DHT22;28447;48.682;9.022;2023-02-28T17:24:02;3.50;93.80
42803;DHT22;28447;48.682;9.022;2023-02-28T17:26:28;3.40;94.20
42803;DHT22;28447;48.682;9.022;2023-02-28T17:28:55;3.20;94.10
42803;DHT22;28447;48.682;9.022;2023-02-28T17:31:25;3.10;94.50
42803;DHT22;28447;48.682;9.022;2023-02-28T17:33:51;3.10;94.80
42803;DHT22;28447;48.682;9.022;2023-02-28T17:36:25;3.10;94.70
42803;DHT22;28447;48.682;9.022;2023-02-28T17:38:53;3.10;94.90
42803;DHT22;28447;48.682;9.022;2023-02-28T17:41:20;2.90;95.10
42803;DHT22;28447;48.682;9.022;2023-02-28T17:43:46;3.00;95.30
42803;DHT22;28447;48.682;9.022;2023-02-28T17:46:20;3.00;95.10
42803;DHT22;28447;48.682;9.022;2023-02-28T17:48:47;3.00;95.20
42803;DHT22;28447;48.682;9.022;2023-02-28T17:51:14;2.80;95.40
42803;DHT22;28447;48.682;9.022;2023-02-28T17:53:40;2.70;95.50
42803;DHT22;28447;48.682;9.022;2023-02-28T17:56:12;2.70;95.70
42803;DHT22;28447;48.682;9.022;2023-02-28T17:58:38;2.70;95.70
42803;DHT22;28447;48.682;9.022;2023-02-28T18:01:04;2.50;95.90
42803;DHT22;28447;48.682;9.022;2023-02-28T18:03:30;2.50;96.00
42803;DHT22;28447;48.682;9.022;2023-02-28T18:05:56;2.50;96.20
42803;DHT22;28447;48.682;9.022;2023-02-28T18:08:22;2.60;96.10
42803;DHT22;28447;48.682;9.022;2023-02-28T18:10:48;2.40;96.40
42803;DHT22;28447;48.682;9.022;2023-02-28T18:13:13;2.40;96.60
42803;DHT22;28447;48.682;9.022;2023-02-28T18:15:39;2.50;96.50
42803;DHT22;28447;48.682;9.022;2023-02-28T18:18:05;2.40;96.50
42803;DHT22;28447;48.682;9.022;2023-02-28T18:20:32;2.20;96.70
42803;DHT22;28447;48.682;9.022;2023-02-28T18:22:58;2.20;96.90
42803;DHT22;28447;48.682;9.022;2023-02-28T18:25:25;2.10;96.90
42803;DHT22;28447;48.682;9.022;2023-02-28T18:27:51;2.10;97.10
42803;DHT22;28447;48.682;9.022;2023-02-28T18:30:24;2.10;97.30
42803;DHT22;28447;48.682;9.022;2023-02-28T18:32:50;2.10;96.90
42803;DHT22;28447;48.682;9.022;2023-02-28T18:35:16;2.10;97.30
42803;DHT22;28447;48.682;9.022;2023-02-28T18:38:20;2.00;97.60
42803;DHT22;28447;48.682;9.022;2023-02-28T18:40:55;2.00;97.30
42803;DHT22;28447;48.682;9.022;2023-02-28T18:43:21;1.90;97.70
42803;DHT22;28447;48.682;9.022;2023-02-28T18:45:47;1.90;97.70
42803;DHT22;28447;48.682;9.022;2023-02-28T18:48:12;1.90;97.80
42803;DHT22;28447;48.682;9.022;2023-02-28T18:50:40;1.90;97.70
42803;DHT22;28447;48.682;9.022;2023-02-28T18:53:06;1.80;97.80
42803;DHT22;28447;48.682;9.022;2023-02-28T18:55:32;1.70;98.00
42803;DHT22;28447;48.682;9.022;2023-02-28T18:57:58;1.60;98.30
42803;DHT22;28447;48.682;9.022;2023-02-28T19:00:24;1.60;98.30
42803;DHT22;28447;48.682;9.022;2023-02-28T19:02:50;1.60;98.70
42803;DHT22;28447;48.682;9.022;2023-02-28T19:05:17;1.50;98.60
42803;DHT22;28447;48.682;9.022;2023-02-28T19:07:44;1.40;98.80
42803;DHT22;28447;48.682;9.022;2023-02-28T19:10:10;1.40;98.50
42803;DHT22;28447;48.682;9.022;2023-02-28T19:12:37;1.40;98.80
42803;DHT22;28447;48.682;9.022;2023-02-28T19:15:06;1.40;99.30
42803;DHT22;28447;48.682;9.022;2023-02-28T19:17:33;1.30;99.30
42803;DHT22;28447;48.682;9.022;2023-02-28T19:19:58;1.30;99.40
42803;DHT22;28447;48.682;9.022;2023-02-28T19:22:24;1.20;99.60
42803;DHT22;28447;48.682;9.022;2023-02-28T19:24:50;1.20;99.70
42803;DHT22;28447;48.682;9.022;2023-02-28T19:27:17;1.20;99.60
42803;DHT22;28447;48.682;9.022;2023-02-28T19:29:47;1.10;99.60
42803;DHT22;28447;48.682;9.022;2023-02-28T19:32:14;1.00;99.90
42803;DHT22;28447;48.682;9.022;2023-02-28T19:34:41;1.00;99.90
42803;DHT22;28447;48.682;9.022;2023-02-28T19:37:07;0.90;99.90
42803;DHT22;28447;48.682;9.022;2023-02-28T19:39:33;0.90;99.90
42803;DHT22;28447;48.682;9.022;2023-02-28T19:42:07;0.80;99.90
42803;DHT22;28447;48.682;9.022;2023-02-28T19:44:33;0.80;99.90
42803;DHT22;28447;48.682;9.022;2023-02-28T19:46:58;0.80;99.90
42803;DHT22;28447;48.682;9.022;2023-02-28T19:49:24;0.70;99.90
42803;DHT22;28447;48.682;9.022;2023-02-28T19:51:50;0.70;99.90
42803;DHT22;28447;48.682;9.022;2023-02-28T19:54:15;0.70;99.90
42803;DHT22;28447;48.682;9.022;2023-02-28T19:56:41;0.70;99.90
42803;DHT22;28447;48.682;9.022;2023-02-28T19:59:07;0.70;99.90
42803;DHT22;28447;48.682;9.022;2023-02-28T20:01:32;0.70;99.90
42803;DHT22;28447;48.682;9.022;2023-02-28T20:03:58;0.60;99.90
42803;DHT22;28447;48.682;9.022;2023-02-28T20:06:24;0.50;99.90
42803;DHT22;28447;48.682;9.022;2023-02-28T20:08:53;0.50;99.90
42803;DHT22;28447;48.682;9.022;2023-02-28T20:11:19;0.50;99.90
42803;DHT22;28447;48.682;9.022;2023-02-28T20:13:44;0.40;99.90
42803;DHT22;28447;48.682;9.022;2023-02-28T20:16:11;0.40;99.90
42803;DHT22;28447;48.682;9.022;2023-02-28T20:18:38;0.40;99.90
42803;DHT22;28447;48.682;9.022;2023-02-28T20:21:07;0.40;99.90
42803;DHT22;28447;48.682;9.022;2023-02-28T20:23:33;0.30;99.90
42803;DHT22;28447;48.682;9.022;2023-02-28T20:25:59;0.30;99.90
42803;DHT22;28447;48.682;9.022;2023-02-28T20:28:25;0.30;99.90
42803;DHT22;28447;48.682;9.022;2023-02-28T20:30:51;0.30;99.90
42803;DHT22;28447;48.682;9.022;2023-02-28T20:33:17;0.30;99.90
42803;DHT22;28447;48.682;9.022;2023-02-28T20:35:43;0.20;99.90
42803;DHT22;28447;48.682;9.022;2023-02-28T20:38:09;0.30;99.90
42803;DHT22;28447;48.682;9.022;2023-02-28T20:40:36;0.30;99.90
42803;DHT22;28447;48.682;9.022;2023-02-28T20:43:02;0.20;99.90
42803;DHT22;28447;48.682;9.022;2023-02-28T20:45:27;0.10;99.90
42803;DHT22;28447;48.682;9.022;2023-02-28T20:47:53;0.20;99.90
42803;DHT22;28447;48.682;9.022;2023-02-28T20:50:19;0.00;99.90
42803;DHT22;28447;48.682;9.022;2023-02-28T20:52:45;-0.10;99.90
42803;DHT22;28447;48.682;9.022;2023-02-28T20:55:11;-0.10;99.90
42803;DHT22;28447;48.682;9.022;2023-02-28T20:57:37;-0.10;99.90
42803;DHT22;28447;48.682;9.022;2023-02-28T21:00:05;-0.10;99.90
42803;DHT22;28447;48.682;9.022;2023-02-28T21:02:34;-0.10;99.90
42803;DHT22;28447;48.682;9.022;2023-02-28T21:05:00;-0.10;99.90
42803;DHT22;28447;48.682;9.022;2023-02-28T21:07:29;-0.20;99.90
42803;DHT22;28447;48.682;9.022;2023-02-28T21:09:55;-0.20;99.90
42803;DHT22;28447;48.682;9.022;2023-02-28T21:12:21;-0.20;99.90
42803;DHT22;28447;48.682;9.022;2023-02-28T21:14:46;-0.20;99.90
42803;DHT22;28447;48.682;9.022;2023-02-28T21:17:12;-0.20;99.90
42803;DHT22;28447;48.682;9.022;2023-02-28T21:19:38;-0.20;99.90
42803;DHT22;28447;48.682;9.022;2023-02-28T21:22:04;-0.30;99.90
42803;DHT22;28447;48.682;9.022;2023-02-28T21:24:29;-0.30;99.90
42803;DHT22;28447;48.682;9.022;2023-02-28T21:26:55;-0.30;99.90
42803;DHT22;28447;48.682;9.022;2023-02-28T21:29:25;-0.30;99.90
42803;DHT22;28447;48.682;9.022;2023-02-28T21:31:51;-0.30;99.90
42803;DHT22;28447;48.682;9.022;2023-02-28T21:34:17;-0.30;99.90
42803;DHT22;28447;48.682;9.022;2023-02-28T21:36:44;-0.30;99.90
42803;DHT22;28447;48.682;9.022;2023-02-28T21:39:21;-0.30;99.90
42803;DHT22;28447;48.682;9.022;2023-02-28T21:41:50;-0.30;99.90
42803;DHT22;28447;48.682;9.022;2023-02-28T21:44:15;-0.40;99.90
42803;DHT22;28447;48.682;9.022;2023-02-28T21:46:45;-0.30;99.90
42803;DHT22;28447;48.682;9.022;2023-02-28T21:49:12;-0.40;99.90
42803;DHT22;28447;48.682;9.022;2023-02-28T21:51:37;-0.50;99.90
42803;DHT22;28447;48.682;9.022;2023-02-28T21:54:03;-0.50;99.90
42803;DHT22;28447;48.682;9.022;2023-02-28T21:56:31;-0.50;99.90
42803;DHT22;28447;48.682;9.022;2023-02-28T21:58:58;-0.50;99.90
42803;DHT22;28447;48.682;9.022;2023-02-28T22:01:34;-0.40;99.90
42803;DHT22;28447;48.682;9.022;2023-02-28T22:04:03;-0.50;99.90
42803;DHT22;28447;48.682;9.022;2023-02-28T22:06:31;-0.60;99.90
42803;DHT22;28447;48.682;9.022;2023-02-28T22:08:59;-0.60;99.90
42803;DHT22;28447;48.682;9.022;2023-02-28T22:11:26;-0.60;99.90
42803;DHT22;28447;48.682;9.022;2023-02-28T22:13:53;-0.60;99.90
42803;DHT22;28447;48.682;9.022;2023-02-28T22:16:21;-0.60;99.90
42803;DHT22;28447;48.682;9.022;2023-02-28T22:18:47;-0.60;99.90
42803;DHT22;28447;48.682;9.022;2023-02-28T22:21:14;-0.60;99.90
42803;DHT22;28447;48.682;9.022;2023-02-28T22:23:41;-0.60;99.90
42803;DHT22;28447;48.682;9.022;2023-02-28T22:26:08;-0.70;99.90
42803;DHT22;28447;48.682;9.022;2023-02-28T22:28:35;-0.60;99.90
42803;DHT22;28447;48.682;9.022;2023-02-28T22:31:32;-0.60;99.90
42803;DHT22;28447;48.682;9.022;2023-02-28T22:34:02;-0.70;99.90
42803;DHT22;28447;48.682;9.022;2023-02-28T22:36:30;-0.70;99.90
42803;DHT22;28447;48.682;9.022;2023-02-28T22:38:56;-0.80;99.90
42803;DHT22;28447;48.682;9.022;2023-02-28T22:41:22;-0.80;99.90
42803;DHT22;28447;48.682;9.022;2023-02-28T22:43:53;-0.80;99.90
42803;DHT22;28447;48.682;9.022;2023-02-28T22:46:20;-0.90;99.90
42803;DHT22;28447;48.682;9.022;2023-02-28T22:48:46;-1.00;99.90
42803;DHT22;28447;48.682;9.022;2023-02-28T22:51:22;-0.90;99.90
42803;DHT22;28447;48.682;9.022;2023-02-28T22:53:51;-1.00;99.90